»·PEaware :: N805SB KRNO-KSAC

N805SB :: KRNO-KSAC

FLIGHT INFORMATION

Flight Status: Arrived
Operator: Privately registered:
United States
More flights under this callsign
Pilot: Luis R. (31517)
Aircraft: CESSNA 182 SKYLANE
(C182)
More flights by this aircraft type
Origin: KRNO Reno/Tahoe Intl
United States
Destination: KSAC Sacramento Executive
United States
More flights between these airports :: More routes between these airports
Route: +RENO9 SWR
File this flight plan on PilotEdge
Remarks:
Altitude:
(Current/Filed)
12,000ft
Speed:
(Current/Filed)
130kts
Departed: 22-Oct-20 04:53 PM
Arrived: 22-Oct-20 05:50 PM
Distance/Time
Traveled:
100nm/0:57
Distance/Time
To Go:
Arrived

Flight Plot

Page will automatically refresh every two minutes.

Flight plan parsing failed; only flown route is shown


Map Options




Map Legend


Flown Route
Filed Route
Departure Airport
Arrival Airport
Navaid (VOR, NDB)
Fix

Horizontal Profiles

Position Reports

Time Latitude Longitude Heading Altitude Ground
Speed
22-Oct-20 16:36 39.501847 -119.764478 177 4418ft 0kts
22-Oct-20 16:37 39.501847 -119.764478 177 4418ft 0kts
22-Oct-20 16:38 39.501847 -119.764478 177 4418ft 0kts
22-Oct-20 16:39 39.501847 -119.764478 177 4418ft 0kts
22-Oct-20 16:40 39.501847 -119.764478 177 4418ft 0kts
22-Oct-20 16:41 39.501845 -119.764478 177 4418ft 0kts
22-Oct-20 16:42 39.501845 -119.764478 177 4418ft 0kts
22-Oct-20 16:43 39.501844 -119.764478 177 4418ft 0kts
22-Oct-20 16:44 39.501843 -119.764478 177 4418ft 0kts
22-Oct-20 16:45 39.501843 -119.764478 177 4418ft 0kts
22-Oct-20 16:46 39.501326 -119.764633 211 4418ft 6kts
22-Oct-20 16:47 39.503371 -119.765806 0 4418ft 17kts
22-Oct-20 16:48 39.508974 -119.765789 359 4418ft 17kts
22-Oct-20 16:49 39.513171 -119.765180 359 4418ft 11kts
22-Oct-20 16:50 39.513714 -119.765672 277 4418ft 0kts
22-Oct-20 16:51 39.513729 -119.765850 272 4418ft 6kts
22-Oct-20 16:52 39.502680 -119.766869 175 4573ft 84kts
22-Oct-20 16:53 39.478035 -119.767534 175 5480ft 89kts
22-Oct-20 16:54 39.452830 -119.767967 177 6383ft 92kts
22-Oct-20 16:55 39.425392 -119.766455 176 7135ft 102kts
22-Oct-20 16:56 39.396089 -119.764376 177 7844ft 107kts
22-Oct-20 16:57 39.367276 -119.762422 176 8590ft 102kts
22-Oct-20 16:58 39.337813 -119.760226 177 9184ft 109kts
22-Oct-20 16:59 39.306507 -119.756968 177 9708ft 114kts
22-Oct-20 17:00 39.275937 -119.752577 176 10330ft 108kts
22-Oct-20 17:01 39.245528 -119.747016 177 10851ft 112kts
22-Oct-20 17:02 39.225421 -119.763217 260 11380ft 93kts
22-Oct-20 17:03 39.221617 -119.796592 266 11827ft 95kts
22-Oct-20 17:04 39.218563 -119.832554 266 12006ft 109kts
22-Oct-20 17:05 39.215086 -119.873336 265 12001ft 116kts
22-Oct-20 17:06 39.211495 -119.915011 265 11997ft 117kts
22-Oct-20 17:07 39.207869 -119.956891 265 11995ft 117kts
22-Oct-20 17:08 39.204228 -119.998822 265 11994ft 117kts
22-Oct-20 17:09 39.200561 -120.040886 266 11988ft 118kts
22-Oct-20 17:10 39.196871 -120.083029 266 11986ft 117kts
22-Oct-20 17:11 39.193212 -120.124691 266 11985ft 117kts
22-Oct-20 17:12 39.189513 -120.166542 266 11982ft 118kts
22-Oct-20 17:13 39.185761 -120.208799 266 11978ft 119kts
22-Oct-20 17:14 39.181970 -120.251253 266 11972ft 118kts
22-Oct-20 17:15 39.169470 -120.290599 241 11967ft 123kts
22-Oct-20 17:16 39.149767 -120.326942 241 11958ft 124kts
22-Oct-20 17:17 39.130133 -120.363426 241 11950ft 124kts
22-Oct-20 17:18 39.110526 -120.400003 241 11943ft 124kts
22-Oct-20 17:19 39.090754 -120.436749 240 11936ft 124kts
22-Oct-20 17:20 39.070994 -120.473414 241 11930ft 124kts
22-Oct-20 17:21 39.051235 -120.510112 241 11922ft 125kts
22-Oct-20 17:22 39.031377 -120.546935 240 11915ft 125kts
22-Oct-20 17:23 39.011519 -120.583664 240 11906ft 125kts
22-Oct-20 17:24 38.991534 -120.620630 240 11896ft 125kts
22-Oct-20 17:25 38.971540 -120.657571 240 11886ft 126kts
22-Oct-20 17:26 38.951514 -120.694517 240 11875ft 126kts
22-Oct-20 17:27 38.931199 -120.731937 240 11821ft 127kts
22-Oct-20 17:28 38.911544 -120.768030 241 11974ft 118kts
22-Oct-20 17:29 38.892852 -120.802442 241 12095ft 120kts
22-Oct-20 17:30 38.873352 -120.838369 240 12092ft 124kts
22-Oct-20 17:31 38.853385 -120.874961 240 12084ft 125kts
22-Oct-20 17:32 38.833398 -120.911604 241 12079ft 125kts
22-Oct-20 17:34 38.813189 -120.948675 240 11869ft 131kts
22-Oct-20 17:35 38.791592 -120.988096 239 11377ft 137kts
22-Oct-20 17:36 38.769369 -121.028657 238 10853ft 142kts
22-Oct-20 17:37 38.747100 -121.069273 237 10024ft 138kts
22-Oct-20 17:38 38.725439 -121.108744 235 9100ft 131kts
22-Oct-20 17:39 38.703700 -121.148312 235 8130ft 137kts
22-Oct-20 17:40 38.681517 -121.188625 235 7157ft 139kts
22-Oct-20 17:41 38.658905 -121.229662 235 6160ft 141kts
22-Oct-20 17:42 38.636619 -121.270055 235 5244ft 138kts
22-Oct-20 17:43 38.615056 -121.307322 226 4870ft 122kts
22-Oct-20 17:44 38.588127 -121.334216 219 4103ft 128kts
22-Oct-20 17:45 38.559258 -121.363634 218 3310ft 129kts
22-Oct-20 17:46 38.532552 -121.393975 227 2342ft 142kts
22-Oct-20 17:47 38.508073 -121.427852 234 1426ft 126kts
22-Oct-20 17:48 38.497711 -121.460864 283 762ft 80kts
22-Oct-20 17:49 38.507550 -121.480511 315 196ft 51kts
22-Oct-20 17:50 38.514287 -121.489731 278 27ft 8kts
22-Oct-20 17:51 38.513994 -121.491912 229 27ft 3kts
22-Oct-20 17:52 38.513637 -121.495257 272 27ft 10kts
22-Oct-20 17:52 38.512911 -121.497724 268 27ft 6kts
22-Oct-20 17:54 38.512643 -121.498263 213 27ft 0kts

Navigation Log

Ident Type
Flight plan parsing failed, navigation log unavailable